createdAt,value
2018-03-18T00:01:41.795Z,99220.85
2018-03-18T00:04:09.662Z,99212.72
2018-03-18T00:06:37.467Z,99213.17
2018-03-18T00:09:05.257Z,99219.98
2018-03-18T00:11:33.301Z,99223.47
2018-03-18T00:14:01.068Z,99219.49
2018-03-18T00:16:28.820Z,99231.52
2018-03-18T00:18:56.585Z,99227.02
2018-03-18T00:21:24.253Z,99236.47
2018-03-18T00:23:51.952Z,99243.28
2018-03-18T00:26:19.929Z,99242.17
2018-03-18T00:28:47.850Z,99240.94
2018-03-18T00:31:15.485Z,99251.42
2018-03-18T00:33:43.181Z,99250.88
2018-03-18T00:36:10.898Z,99244.95
2018-03-18T00:38:38.654Z,99252.47
2018-03-18T00:41:06.637Z,99247.43
2018-03-18T00:43:34.330Z,99246.34
2018-03-18T00:46:02.097Z,99247.67
2018-03-18T00:48:29.861Z,99252.64
2018-03-18T00:50:57.628Z,99249.83
2018-03-18T00:53:25.391Z,99249.36
2018-03-18T00:55:53.065Z,99254.11
2018-03-18T00:58:20.773Z,99256.22
2018-03-18T01:00:48.626Z,99252.89
2018-03-18T01:03:16.346Z,99253.94
2018-03-18T01:05:44.314Z,99252.45
2018-03-18T01:08:11.977Z,99251.55
2018-03-18T01:10:39.843Z,99250.45
2018-03-18T01:13:07.468Z,99252.77
2018-03-18T01:15:35.372Z,99248.59
2018-03-18T01:18:03.341Z,99248.85
2018-03-18T01:20:31.313Z,99248.06
2018-03-18T01:22:59.185Z,99247.09
2018-03-18T01:25:26.944Z,99245.83
2018-03-18T01:27:54.631Z,99242.29
2018-03-18T01:30:22.372Z,99238.28
2018-03-18T01:32:50.398Z,99239.38
2018-03-18T01:35:18.200Z,99229.40
2018-03-18T01:37:46.175Z,99237.52
2018-03-18T01:40:13.884Z,99235.83
2018-03-18T01:42:41.698Z,99230.33
2018-03-18T01:45:09.410Z,99225.45
2018-03-18T01:47:37.307Z,99224.43
2018-03-18T01:50:05.098Z,99224.09
2018-03-18T01:52:32.760Z,99220.69
2018-03-18T01:55:00.589Z,99219.89
2018-03-18T01:57:28.284Z,99219.17
2018-03-18T01:59:55.934Z,99218.77
2018-03-18T02:02:23.608Z,99212.43
2018-03-18T02:04:51.578Z,99207.47
2018-03-18T02:07:19.442Z,99213.82
2018-03-18T02:09:47.425Z,99213.91
2018-03-18T02:12:15.112Z,99216.87
2018-03-18T02:14:42.956Z,99212.19
2018-03-18T02:17:10.706Z,99213.50
2018-03-18T02:19:38.468Z,99213.17
2018-03-18T02:22:06.298Z,99207.54
2018-03-18T02:24:33.933Z,99206.08
2018-03-18T02:27:01.863Z,99205.66
2018-03-18T02:29:29.633Z,99206.84
2018-03-18T02:31:57.610Z,99200.45
2018-03-18T02:34:25.606Z,99199.09
2018-03-18T02:36:53.360Z,99204.30
2018-03-18T02:39:21.198Z,99204.38
2018-03-18T02:41:48.968Z,99198.83
2018-03-18T02:44:16.829Z,99194.52
2018-03-18T02:46:44.479Z,99200.78
2018-03-18T02:49:12.228Z,99200.91
2018-03-18T02:51:40.118Z,99194.63
2018-03-18T02:54:07.789Z,99192.91
2018-03-18T02:56:35.489Z,99193.77
2018-03-18T02:59:03.422Z,99184.06
2018-03-18T03:01:31.177Z,99188.48
2018-03-18T03:03:58.941Z,99188.05
2018-03-18T03:06:26.805Z,99188.33
2018-03-18T03:08:54.621Z,99189.20
2018-03-18T03:11:22.330Z,99192.20
2018-03-18T03:13:50.220Z,99189.08
2018-03-18T03:16:17.916Z,99185.06
2018-03-18T03:18:45.729Z,99187.28
2018-03-18T03:21:13.389Z,99182.50
2018-03-18T03:23:41.038Z,99186.46
2018-03-18T03:26:08.919Z,99185.73
2018-03-18T03:28:36.869Z,99186.42
2018-03-18T03:31:04.621Z,99184.14
2018-03-18T03:33:32.418Z,99199.73
2018-03-18T03:36:00.284Z,99189.34
2018-03-18T03:38:28.050Z,99191.72
2018-03-18T03:40:55.920Z,99188.19
2018-03-18T03:43:23.681Z,99196.15
2018-03-18T03:45:51.513Z,99191.04
2018-03-18T03:48:19.209Z,99181.62
2018-03-18T03:50:46.969Z,99195.00
2018-03-18T03:53:14.939Z,99191.09
2018-03-18T03:55:42.769Z,99194.39
2018-03-18T03:58:10.569Z,99197.92
2018-03-18T04:00:38.349Z,99205.27
2018-03-18T04:03:06.184Z,99202.64
2018-03-18T04:05:33.909Z,99204.11
2018-03-18T04:08:01.730Z,99203.84
2018-03-18T04:10:29.390Z,99204.57
2018-03-18T04:12:57.077Z,99210.70
2018-03-18T04:15:24.978Z,99209.48
2018-03-18T04:17:52.639Z,99208.30
2018-03-18T04:20:20.342Z,99206.92
2018-03-18T04:22:48.105Z,99209.32
2018-03-18T04:25:15.835Z,99202.05
2018-03-18T04:27:43.748Z,99211.81
2018-03-18T04:30:11.378Z,99200.13
2018-03-18T04:32:39.178Z,99203.44
2018-03-18T04:35:06.799Z,99203.89
2018-03-18T04:37:34.492Z,99208.75
2018-03-18T04:40:02.255Z,99205.62
2018-03-18T04:42:29.940Z,99207.94
2018-03-18T04:44:57.782Z,99203.77
2018-03-18T04:47:25.648Z,99204.38
2018-03-18T04:49:53.515Z,99208.88
2018-03-18T04:52:21.281Z,99212.62
2018-03-18T04:54:49.152Z,99212.25
2018-03-18T04:57:16.975Z,99212.44
2018-03-18T04:59:44.879Z,99210.13
2018-03-18T05:02:12.847Z,99213.56
2018-03-18T05:04:40.821Z,99213.70
2018-03-18T05:07:08.449Z,99222.19
2018-03-18T05:09:36.216Z,99216.29
2018-03-18T05:12:04.110Z,99216.72
2018-03-18T05:14:31.989Z,99216.67
2018-03-18T05:16:59.741Z,99217.38
2018-03-18T05:19:27.500Z,99225.73
2018-03-18T05:21:55.160Z,99223.70
2018-03-18T05:24:22.931Z,99224.84
2018-03-18T05:26:50.678Z,99221.23
2018-03-18T05:29:18.456Z,99216.78
2018-03-18T05:31:46.120Z,99221.61
2018-03-18T05:34:13.784Z,99225.27
2018-03-18T05:36:41.441Z,99223.08
2018-03-18T05:39:09.413Z,99229.92
2018-03-18T05:41:37.280Z,99232.36
2018-03-18T05:44:05.037Z,99233.80
2018-03-18T05:46:32.673Z,99244.06
2018-03-18T05:49:00.469Z,99238.85
2018-03-18T05:51:28.237Z,99240.16
2018-03-18T05:53:56.001Z,99244.45
2018-03-18T05:56:23.791Z,99250.34
2018-03-18T05:58:51.526Z,99252.77
2018-03-18T06:01:19.398Z,99256.14
2018-03-18T06:03:47.059Z,99255.09
2018-03-18T06:06:15.129Z,99260.38
2018-03-18T06:08:42.991Z,99256.00
2018-03-18T06:11:10.761Z,99261.56
2018-03-18T06:13:38.416Z,99261.94
2018-03-18T06:16:06.153Z,99267.91
2018-03-18T06:18:34.048Z,99271.91
2018-03-18T06:21:01.916Z,99269.52
2018-03-18T06:23:29.577Z,99275.34
2018-03-18T06:25:57.408Z,99273.97
2018-03-18T06:28:25.029Z,99270.59
2018-03-18T06:30:52.972Z,99281.29
2018-03-18T06:33:20.739Z,99287.89
2018-03-18T06:35:48.416Z,99289.40
2018-03-18T06:38:16.121Z,99279.94
2018-03-18T06:40:43.759Z,99284.17
2018-03-18T06:43:11.584Z,99275.48
2018-03-18T06:45:39.358Z,99290.21
2018-03-18T06:48:07.207Z,99293.98
2018-03-18T06:50:34.847Z,99283.98
2018-03-18T06:53:02.643Z,99288.73
2018-03-18T06:55:30.307Z,99292.78
2018-03-18T06:57:58.072Z,99292.18
2018-03-18T07:00:25.731Z,99297.36
2018-03-18T07:02:53.598Z,99300.51
2018-03-18T07:05:21.470Z,99300.67
2018-03-18T07:07:49.432Z,99306.98
2018-03-18T07:10:17.298Z,99309.38
2018-03-18T07:12:45.161Z,99300.80
2018-03-18T07:15:12.836Z,99309.47
2018-03-18T07:17:40.695Z,99317.19
2018-03-18T07:20:08.457Z,99312.44
2018-03-18T07:22:36.120Z,99324.66
2018-03-18T07:25:03.940Z,99315.77
2018-03-18T07:27:31.754Z,99328.11
2018-03-18T07:29:59.484Z,99330.61
2018-03-18T07:32:27.165Z,99329.38
2018-03-18T07:34:55.221Z,99332.03
2018-03-18T07:37:22.968Z,99333.13
2018-03-18T07:39:50.772Z,99335.22
2018-03-18T07:42:18.744Z,99331.70
2018-03-18T07:44:46.715Z,99332.11
2018-03-18T07:47:14.634Z,99335.43
2018-03-18T07:49:42.346Z,99342.55
2018-03-18T07:52:10.016Z,99339.52
2018-03-18T07:54:37.975Z,99345.80
2018-03-18T07:57:05.785Z,99353.20
2018-03-18T07:59:33.494Z,99352.83
2018-03-18T08:02:01.377Z,99350.80
2018-03-18T08:04:29.339Z,99351.61
2018-03-18T08:06:56.990Z,99358.34
2018-03-18T08:09:24.766Z,99351.34
2018-03-18T08:11:52.499Z,99359.72
2018-03-18T08:14:20.613Z,99351.86
2018-03-18T08:16:48.423Z,99361.58
2018-03-18T08:19:16.334Z,99359.50
2018-03-18T08:21:44.204Z,99358.80
2018-03-18T08:24:12.067Z,99367.31
2018-03-18T08:26:39.935Z,99372.68
2018-03-18T08:30:29.623Z,99370.57
2018-03-18T08:32:57.382Z,99372.48
2018-03-18T08:35:25.257Z,99368.59
2018-03-18T08:37:53.009Z,99379.43
2018-03-18T08:40:20.777Z,99380.97
2018-03-18T08:42:48.518Z,99358.93
2018-03-18T08:45:16.518Z,99386.48
2018-03-18T08:50:12.552Z,99384.20
2018-03-18T08:52:40.294Z,99387.81
2018-03-18T08:55:08.088Z,99382.55
2018-03-18T08:57:35.947Z,99382.19
2018-03-18T09:00:03.828Z,99392.47
2018-03-18T09:02:32.093Z,99396.55
2018-03-18T09:05:00.236Z,99391.84
2018-03-18T09:07:28.145Z,99404.56
2018-03-18T09:09:56.016Z,99392.27
2018-03-18T09:12:23.972Z,99394.14
2018-03-18T09:14:51.920Z,99405.59
2018-03-18T09:17:19.648Z,99398.52
2018-03-18T09:19:47.368Z,99399.59
2018-03-18T09:22:15.228Z,99397.03
2018-03-18T09:24:43.207Z,99396.62
2018-03-18T09:27:11.067Z,99409.34
2018-03-18T09:29:38.894Z,99411.00
2018-03-18T09:32:06.899Z,99404.78
2018-03-18T09:34:34.868Z,99409.77
2018-03-18T09:37:02.735Z,99399.59
2018-03-18T09:39:30.644Z,99416.29
2018-03-18T09:41:58.571Z,99411.64
2018-03-18T09:44:26.209Z,99418.55
2018-03-18T09:46:54.037Z,99421.11
2018-03-18T09:49:22.060Z,99426.08
2018-03-18T09:51:49.730Z,99431.37
2018-03-18T09:54:17.529Z,99421.13
2018-03-18T09:56:45.322Z,99432.24
2018-03-18T09:59:12.995Z,99437.77
2018-03-18T10:01:40.751Z,99440.29
2018-03-18T10:04:08.659Z,99435.03
2018-03-18T10:06:36.421Z,99428.25
2018-03-18T10:09:04.269Z,99434.55
2018-03-18T10:11:32.183Z,99426.62
2018-03-18T10:14:00.026Z,99427.28
2018-03-18T10:16:28.197Z,99429.24
2018-03-18T10:18:55.934Z,99426.55
2018-03-18T10:21:23.608Z,99424.73
2018-03-18T10:23:51.602Z,99434.88
2018-03-18T10:26:19.348Z,99435.86
2018-03-18T10:28:47.245Z,99427.66
2018-03-18T10:31:15.131Z,99435.28
2018-03-18T10:33:43.322Z,99440.12
2018-03-18T10:36:11.020Z,99446.10
2018-03-18T10:38:39.112Z,99418.98
2018-03-18T10:41:06.961Z,99433.83
2018-03-18T10:43:34.855Z,99453.29
2018-03-18T10:46:02.752Z,99445.09
2018-03-18T10:48:31.054Z,99438.04
2018-03-18T10:50:58.940Z,99455.52
2018-03-18T10:53:26.938Z,99446.30
2018-03-18T10:55:54.633Z,99456.72
2018-03-18T10:58:22.750Z,99456.25
2018-03-18T11:00:51.434Z,99452.94
2018-03-18T11:03:19.243Z,99451.38
2018-03-18T11:05:46.952Z,99451.34
2018-03-18T11:08:14.623Z,99461.20
2018-03-18T11:10:42.380Z,99452.98
2018-03-18T11:13:10.397Z,99461.96
2018-03-18T11:15:38.274Z,99451.55
2018-03-18T11:18:06.138Z,99458.53
2018-03-18T11:20:33.900Z,99464.31
2018-03-18T11:23:01.620Z,99452.40
2018-03-18T11:25:29.302Z,99450.67
2018-03-18T11:27:57.346Z,99459.69
2018-03-18T11:30:25.422Z,99455.53
2018-03-18T11:32:53.389Z,99454.38
2018-03-18T11:35:21.255Z,99460.27
2018-03-18T11:37:49.124Z,99456.31
2018-03-18T11:40:17.196Z,99449.88
2018-03-18T11:42:45.073Z,99453.41
2018-03-18T11:45:12.929Z,99450.55
2018-03-18T11:47:41.025Z,99452.51
2018-03-18T11:50:08.861Z,99456.80
2018-03-18T11:52:36.663Z,99452.87
2018-03-18T11:55:04.282Z,99450.88
2018-03-18T11:57:31.926Z,99456.44
2018-03-18T11:59:59.678Z,99425.40
2018-03-18T12:02:27.334Z,99446.03
2018-03-18T12:04:55.089Z,99444.80
2018-03-18T12:07:22.714Z,99442.84
2018-03-18T12:09:50.421Z,99439.84
2018-03-18T12:12:18.137Z,99452.00
2018-03-18T12:14:46.097Z,99448.74
2018-03-18T12:17:13.731Z,99448.22
2018-03-18T12:19:41.430Z,99446.92
2018-03-18T12:22:09.293Z,99441.28
2018-03-18T12:24:37.372Z,99445.39
2018-03-18T12:27:05.041Z,99439.20
2018-03-18T12:29:32.984Z,99443.30
2018-03-18T12:32:00.665Z,99430.14
2018-03-18T12:34:29.433Z,99444.95
2018-03-18T12:36:57.303Z,99446.02
2018-03-18T12:39:25.171Z,99439.91
2018-03-18T12:41:52.851Z,99441.30
2018-03-18T12:44:20.801Z,99441.02
2018-03-18T12:46:48.873Z,99450.48
2018-03-18T12:49:16.796Z,99438.69
2018-03-18T12:51:44.513Z,99448.00
2018-03-18T12:54:12.343Z,99442.68
2018-03-18T12:56:40.338Z,99438.69
2018-03-18T12:59:08.205Z,99444.14
2018-03-18T13:01:35.866Z,99434.48
2018-03-18T13:04:03.643Z,99432.06
2018-03-18T13:06:31.702Z,99421.27
2018-03-18T13:08:59.387Z,99417.41
2018-03-18T13:11:27.225Z,99427.98
2018-03-18T13:13:55.005Z,99422.73
2018-03-18T13:16:22.757Z,99435.70
2018-03-18T13:18:50.585Z,99436.39
2018-03-18T13:21:19.742Z,99440.97
2018-03-18T13:23:47.594Z,99443.41
2018-03-18T13:26:15.607Z,99439.91
2018-03-18T13:28:43.424Z,99442.05
2018-03-18T13:31:11.105Z,99433.77
2018-03-18T13:33:38.831Z,99435.50
2018-03-18T13:36:06.820Z,99432.59
2018-03-18T13:38:34.444Z,99431.61
2018-03-18T13:41:02.208Z,99440.41
2018-03-18T13:43:30.013Z,99442.02
2018-03-18T13:45:58.193Z,99440.98
2018-03-18T13:48:26.205Z,99435.47
2018-03-18T13:50:53.982Z,99439.81
2018-03-18T13:53:21.674Z,99448.42
2018-03-18T13:55:49.449Z,99450.64
2018-03-18T13:58:17.315Z,99430.94
2018-03-18T14:00:45.376Z,99451.02
2018-03-18T14:03:13.452Z,99440.63
2018-03-18T14:05:41.261Z,99438.67
2018-03-18T14:08:08.983Z,99432.44
2018-03-18T14:10:36.650Z,99435.52
2018-03-18T14:13:04.411Z,99427.89
2018-03-18T14:15:32.282Z,99426.13
2018-03-18T14:18:00.245Z,99441.34
2018-03-18T14:20:27.902Z,99436.44
2018-03-18T14:22:55.790Z,99442.38
2018-03-18T14:25:23.513Z,99441.88
2018-03-18T14:27:51.509Z,99436.77
2018-03-18T14:30:19.374Z,99443.03
2018-03-18T14:32:47.238Z,99445.53
2018-03-18T14:35:15.131Z,99449.78
2018-03-18T14:37:42.975Z,99440.75
2018-03-18T14:40:10.802Z,99448.97
2018-03-18T14:42:38.531Z,99439.86
2018-03-18T14:45:06.370Z,99463.91
2018-03-18T14:47:34.176Z,99454.25
2018-03-18T14:50:02.101Z,99460.55
2018-03-18T14:52:31.050Z,99461.23
2018-03-18T14:54:59.011Z,99470.24
2018-03-18T14:57:26.730Z,99466.71
2018-03-18T14:59:54.566Z,99455.11
2018-03-18T15:02:22.252Z,99468.22
2018-03-18T15:04:50.053Z,99460.32
2018-03-18T15:07:18.297Z,99471.17
2018-03-18T15:09:46.288Z,99480.46
2018-03-18T15:12:14.186Z,99476.91
2018-03-18T15:14:41.994Z,99481.06
2018-03-18T15:17:09.866Z,99478.59
2018-03-18T15:19:37.640Z,99478.88
2018-03-18T15:22:05.326Z,99486.78
2018-03-18T15:24:33.154Z,99485.66
2018-03-18T15:27:01.341Z,99497.91
2018-03-18T15:29:30.227Z,99489.97
2018-03-18T15:31:58.520Z,99498.52
2018-03-18T15:34:26.262Z,99503.13
2018-03-18T15:36:54.545Z,99506.53
2018-03-18T15:39:22.616Z,99513.14
2018-03-18T15:41:50.479Z,99508.80
2018-03-18T15:44:18.336Z,99517.28
2018-03-18T15:48:00.306Z,99515.78
2018-03-18T15:50:28.112Z,99521.96
2018-03-18T15:52:55.975Z,99519.02
2018-03-18T15:55:23.842Z,99525.31
2018-03-18T15:57:51.710Z,99524.41
2018-03-18T16:00:19.677Z,99530.32
2018-03-18T16:02:47.545Z,99525.39
2018-03-18T16:05:15.312Z,99520.20
2018-03-18T16:07:43.072Z,99538.00
2018-03-18T16:10:10.784Z,99539.98
2018-03-18T16:12:38.920Z,99539.66
2018-03-18T16:15:06.571Z,99536.41
2018-03-18T16:17:34.231Z,99546.80
2018-03-18T16:20:01.995Z,99549.36
2018-03-18T16:22:29.660Z,99558.15
2018-03-18T16:24:57.423Z,99561.78
2018-03-18T16:27:25.295Z,99563.39
2018-03-18T16:30:05.038Z,99572.11
2018-03-18T16:32:32.701Z,99576.38
2018-03-18T16:35:00.664Z,99569.71
2018-03-18T16:37:28.428Z,99575.44
2018-03-18T16:39:56.193Z,99582.31
2018-03-18T16:42:23.955Z,99582.39
2018-03-18T16:44:51.679Z,99587.66
2018-03-18T16:47:19.438Z,99591.30
2018-03-18T16:49:47.250Z,99600.09
2018-03-18T16:52:14.977Z,99596.13
2018-03-18T16:54:42.741Z,99596.16
2018-03-18T16:57:10.644Z,99596.76
2018-03-18T16:59:38.511Z,99603.25
2018-03-18T17:02:06.250Z,99597.95
2018-03-18T17:04:33.940Z,99599.59
2018-03-18T17:07:01.643Z,99599.14
2018-03-18T17:09:29.372Z,99604.11
2018-03-18T17:11:57.132Z,99608.38
2018-03-18T17:14:24.994Z,99616.78
2018-03-18T17:16:52.759Z,99617.40
2018-03-18T17:19:20.625Z,99618.78
2018-03-18T17:21:48.285Z,99616.53
2018-03-18T17:24:16.155Z,99621.75
2018-03-18T17:26:43.873Z,99624.25
2018-03-18T17:29:11.632Z,99631.71
2018-03-18T17:31:39.402Z,99643.97
2018-03-18T17:34:07.175Z,99641.88
2018-03-18T17:36:34.931Z,99647.48
2018-03-18T17:39:02.636Z,99657.16
2018-03-18T17:41:30.401Z,99663.31
2018-03-18T17:43:58.169Z,99663.97
2018-03-18T17:46:37.811Z,99668.70
2018-03-18T17:49:17.450Z,99664.67
2018-03-18T17:55:04.494Z,99668.02
2018-03-18T17:57:32.359Z,99679.08
2018-03-18T18:00:00.120Z,99697.66
2018-03-18T18:02:27.880Z,99686.48
2018-03-18T18:04:55.644Z,99693.55
2018-03-18T18:07:23.310Z,99697.16
2018-03-18T18:09:51.055Z,99681.98
2018-03-18T18:12:18.940Z,99689.78
2018-03-18T18:14:46.708Z,99700.22
2018-03-18T18:17:14.538Z,99703.98
2018-03-18T18:19:42.302Z,99699.80
2018-03-18T18:22:10.059Z,99706.90
2018-03-18T18:24:37.761Z,99706.02
2018-03-18T18:27:05.625Z,99695.27
2018-03-18T18:29:33.389Z,99703.52
2018-03-18T18:32:01.256Z,99709.73
2018-03-18T18:34:29.021Z,99708.42
2018-03-18T18:36:56.887Z,99707.78
2018-03-18T18:39:24.650Z,99711.55
2018-03-18T18:41:52.465Z,99712.27
2018-03-18T18:44:20.275Z,99718.19
2018-03-18T18:46:48.158Z,99730.31
2018-03-18T18:49:15.811Z,99730.27
2018-03-18T18:51:43.677Z,99720.74
2018-03-18T18:54:11.442Z,99721.70
2018-03-18T18:56:39.208Z,99728.11
2018-03-18T18:59:07.029Z,99728.06
2018-03-18T19:01:34.837Z,99729.37
2018-03-18T19:04:02.751Z,99734.51
2018-03-18T19:06:30.520Z,99746.05
2018-03-18T19:08:58.251Z,99746.19
2018-03-18T19:11:25.996Z,99742.32
2018-03-18T19:13:53.862Z,99744.19
2018-03-18T19:16:21.516Z,99748.91
2018-03-18T19:18:49.289Z,99755.83
2018-03-18T19:21:17.011Z,99742.28
2018-03-18T19:23:44.816Z,99756.28
2018-03-18T19:26:12.518Z,99747.37
2018-03-18T19:28:40.364Z,99745.92
2018-03-18T19:31:08.112Z,99750.15
2018-03-18T19:33:35.919Z,99753.89
2018-03-18T19:36:03.638Z,99753.33
2018-03-18T19:38:31.396Z,99749.70
2018-03-18T19:40:59.114Z,99757.73
2018-03-18T19:43:26.931Z,99754.39
2018-03-18T19:45:54.645Z,99753.16
2018-03-18T19:48:22.386Z,99754.47
2018-03-18T19:50:50.076Z,99753.48
2018-03-18T19:53:17.885Z,99765.42
2018-03-18T19:55:45.751Z,99758.27
2018-03-18T19:58:13.475Z,99766.13
2018-03-18T20:00:41.222Z,99763.38
2018-03-18T20:03:09.043Z,99763.84
2018-03-18T20:05:36.877Z,99766.69
2018-03-18T20:08:04.569Z,99777.12
2018-03-18T20:10:32.233Z,99766.06
2018-03-18T20:12:59.897Z,99766.94
2018-03-18T20:15:27.559Z,99769.20
2018-03-18T20:17:55.423Z,99776.00
2018-03-18T20:20:23.294Z,99777.90
2018-03-18T20:22:50.952Z,99780.05
2018-03-18T20:25:18.617Z,99778.67
2018-03-18T20:27:46.278Z,99777.83
2018-03-18T20:30:14.144Z,99774.02
2018-03-18T20:32:41.972Z,99785.23
2018-03-18T20:35:09.876Z,99773.56
2018-03-18T20:37:37.537Z,99774.23
2018-03-18T20:40:05.490Z,99779.77
2018-03-18T20:42:33.234Z,99772.02
2018-03-18T20:45:01.039Z,99773.78
2018-03-18T20:47:28.902Z,99778.11
2018-03-18T20:49:56.668Z,99775.58
2018-03-18T20:52:24.421Z,99773.84
2018-03-18T20:54:52.132Z,99772.23
2018-03-18T20:57:19.960Z,99770.22
2018-03-18T20:59:47.673Z,99776.28
2018-03-18T21:02:15.487Z,99776.00
2018-03-18T21:04:43.251Z,99779.84
2018-03-18T21:07:10.931Z,99788.90
2018-03-18T21:09:38.632Z,99787.45
2018-03-18T21:12:06.339Z,99788.80
2018-03-18T21:14:34.104Z,99781.25
2018-03-18T21:17:01.929Z,99783.12
2018-03-18T21:19:29.631Z,99790.09
2018-03-18T21:21:57.606Z,99782.27
2018-03-18T21:24:25.379Z,99779.87
2018-03-18T21:26:53.230Z,99783.68
2018-03-18T21:29:20.958Z,99786.78
2018-03-18T21:31:48.724Z,99786.01
2018-03-18T21:34:16.527Z,99791.29
2018-03-18T21:36:44.393Z,99783.58
2018-03-18T21:39:12.056Z,99783.11
2018-03-18T21:41:39.821Z,99783.86
2018-03-18T21:44:07.636Z,99787.66
2018-03-18T21:46:35.345Z,99781.00
2018-03-18T21:49:03.219Z,99781.95
2018-03-18T21:51:30.976Z,99785.27
2018-03-18T21:53:58.793Z,99785.83
2018-03-18T21:56:26.612Z,99780.16
2018-03-18T21:58:54.473Z,99784.66
2018-03-18T22:01:22.564Z,99789.31
2018-03-18T22:03:50.379Z,99786.53
2018-03-18T22:06:18.072Z,99788.95
2018-03-18T22:08:45.940Z,99786.81
2018-03-18T22:11:13.704Z,99785.61
2018-03-18T22:13:41.574Z,99786.81
2018-03-18T22:16:09.334Z,99805.94
2018-03-18T22:18:36.996Z,99783.28
2018-03-18T22:21:04.760Z,99786.14
2018-03-18T22:23:32.613Z,99788.43
2018-03-18T22:26:00.397Z,99791.99
2018-03-18T22:28:28.368Z,99786.35
2018-03-18T22:30:56.024Z,99793.98
2018-03-18T22:33:23.686Z,99789.66
2018-03-18T22:35:51.455Z,99792.69
2018-03-18T22:38:19.316Z,99791.70
2018-03-18T22:40:47.069Z,99788.82
2018-03-18T22:43:14.736Z,99787.48
2018-03-18T22:45:42.502Z,99778.25
2018-03-18T22:48:10.269Z,99774.02
2018-03-18T22:50:38.032Z,99772.50
2018-03-18T22:53:05.747Z,99777.86
2018-03-18T22:55:33.572Z,99779.09
2018-03-18T22:58:01.276Z,99782.55
2018-03-18T23:00:29.090Z,99774.47
2018-03-18T23:02:56.853Z,99779.36
2018-03-18T23:05:24.619Z,99783.45
2018-03-18T23:07:52.343Z,99779.86
2018-03-18T23:10:20.146Z,99785.81
2018-03-18T23:12:47.915Z,99791.38
2018-03-18T23:15:15.780Z,99793.70
2018-03-18T23:17:43.544Z,99789.02
2018-03-18T23:20:11.304Z,99796.38
2018-03-18T23:22:39.016Z,99790.09
2018-03-18T23:25:06.834Z,99795.03
2018-03-18T23:27:34.610Z,99796.97
2018-03-18T23:30:02.361Z,99796.55
2018-03-18T23:32:30.229Z,99776.19
2018-03-18T23:34:57.894Z,99793.59
2018-03-18T23:37:25.764Z,99780.16
2018-03-18T23:39:53.470Z,99784.81
2018-03-18T23:42:21.345Z,99780.59
2018-03-18T23:44:49.047Z,99787.41
2018-03-18T23:47:16.818Z,99786.17
2018-03-18T23:49:44.577Z,99774.48
2018-03-18T23:52:12.300Z,99779.17
2018-03-18T23:54:40.106Z,99784.55
2018-03-18T23:57:07.973Z,99787.58
2018-03-18T23:59:35.702Z,99788.97
